Time;durP1;ratioP1;P1;durP2;ratioP2;P2;SDS_P1;SDS_P2;PMS_P1;PMS_P2;Temp;Humidity;BMP_temperature;BMP_pressure;BME280_temperature;BME280_humidity;BME280_pressure;Samples;Min_cycle;Max_cycle;Signal;HPM_P1;HPM_P2
2022/01/20 00:03:30;;;;;;;;;;;;;;;7.86;61.49;101393.81;5021941;28;6983;-70
2022/01/20 00:06:48;;;;;;;;;;;;;;;7.81;61.87;101393.47;5023113;28;6864;-70
2022/01/20 00:28:10;;;;;;;;;;;;;;;7.60;62.26;101397.84;4970725;28;7922;-70
2022/01/20 00:33:35;;;;;;;;;;;;;;;7.61;62.77;101387.75;4977435;28;7084;-70
2022/01/20 00:38:32;;;;;;;;;;;;;;;7.66;62.21;101402.53;5016795;28;6804;-70
2022/01/20 00:40:58;;;;;;;;;;;;;;;7.66;62.43;101395.75;5018592;28;6916;-70
2022/01/20 00:43:24;;;;;;;;;;;;;;;7.68;62.09;101404.44;5038971;28;6893;-70
2022/01/20 00:45:50;;;;;;;;;;;;;;;7.69;62.85;101418.06;5020054;28;6811;-70
2022/01/20 00:48:16;;;;;;;;;;;;;;;7.68;62.08;101421.38;5020772;28;7238;-70
2022/01/20 00:50:41;;;;;;;;;;;;;;;7.67;61.61;101419.63;5020168;28;6879;-70
2022/01/20 00:53:07;;;;;;;;;;;;;;;7.63;61.84;101416.84;5039747;28;7132;-70
2022/01/20 00:55:33;;;;;;;;;;;;;;;7.61;62.40;101423.47;5019680;28;7282;-70
2022/01/20 00:57:59;;;;;;;;;;;;;;;7.62;61.77;101422.69;5052042;28;6824;-70
2022/01/20 01:00:25;;;;;;;;;;;;;;;7.64;62.57;101420.25;5017715;28;7034;-70
2022/01/20 01:02:50;;;;;;;;;;;;;;;7.64;62.51;101425.38;5021278;28;7222;-70
2022/01/20 01:05:17;;;;;;;;;;;;;;;7.66;62.14;101425.50;5004517;28;6888;-70
2022/01/20 01:10:11;;;;;;;;;;;;;;;7.62;62.50;101422.69;5035990;28;7007;-70
2022/01/20 01:12:53;;;;;;;;;;;;;;;7.59;61.67;101422.47;5026792;28;7383;-70
2022/01/20 01:15:25;;;;;;;;;;;;;;;7.53;60.98;101429.63;5026233;28;7313;-70
2022/01/20 01:23:23;;;;;;;;;;;;;;;7.36;62.15;101419.03;5018815;28;6819;-70
2022/01/20 01:25:49;;;;;;;;;;;;;;;7.35;61.50;101416.38;5018965;28;6804;-70
2022/01/20 01:28:17;;;;;;;;;;;;;;;7.33;61.87;101417.91;5000692;28;6871;-70
2022/01/20 01:33:20;;;;;;;;;;;;;;;7.36;62.90;101423.25;5037419;28;6823;-70
2022/01/20 01:35:54;;;;;;;;;;;;;;;7.41;63.00;101429.59;5014544;28;6956;-70
2022/01/20 01:38:36;;;;;;;;;;;;;;;7.48;63.20;101436.06;5021589;28;7113;-70
2022/01/20 01:41:18;;;;;;;;;;;;;;;7.54;63.21;101439.09;5022152;28;6812;-70
2022/01/20 01:43:48;;;;;;;;;;;;;;;7.59;62.42;101437.78;5017785;28;7131;-70
2022/01/20 01:46:15;;;;;;;;;;;;;;;7.64;62.75;101433.94;5030865;28;8144;-70
2022/01/20 01:48:44;;;;;;;;;;;;;;;7.68;62.95;101417.19;5028681;28;6819;-70
2022/01/20 01:51:11;;;;;;;;;;;;;;;7.71;62.96;101421.59;5011268;28;7615;-70
2022/01/20 01:53:39;;;;;;;;;;;;;;;7.73;61.78;101420.09;5047890;28;7258;-70
2022/01/20 01:56:06;;;;;;;;;;;;;;;7.69;61.41;101421.50;5026560;28;6845;-70
2022/01/20 01:58:32;;;;;;;;;;;;;;;7.64;62.26;101423.72;5034500;28;7948;-70
2022/01/20 02:00:59;;;;;;;;;;;;;;;7.58;61.69;101427.44;5017468;28;6816;-70
2022/01/20 02:03:25;;;;;;;;;;;;;;;7.51;61.13;101438.84;5019693;28;6979;-70
2022/01/20 02:19:54;;;;;;;;;;;;;;;7.26;61.56;101424.22;5034909;28;7009;-70
2022/01/20 02:22:20;;;;;;;;;;;;;;;7.31;62.64;101427.13;5020837;28;7519;-70
2022/01/20 02:24:46;;;;;;;;;;;;;;;7.34;62.79;101435.00;5014392;28;6891;-70
2022/01/20 02:27:12;;;;;;;;;;;;;;;7.40;62.83;101440.59;5036807;28;7175;-70
2022/01/20 02:29:37;;;;;;;;;;;;;;;7.47;63.19;101436.84;5032296;28;7210;-70
2022/01/20 02:32:04;;;;;;;;;;;;;;;7.54;63.34;101426.34;5014710;28;6808;-69
2022/01/20 02:34:31;;;;;;;;;;;;;;;7.61;62.90;101430.25;5033280;28;7229;-69
2022/01/20 02:37:02;;;;;;;;;;;;;;;7.69;62.81;101441.03;4996504;28;6804;-69
2022/01/20 02:44:57;;;;;;;;;;;;;;;7.78;62.56;101434.97;5047414;28;7074;-69
2022/01/20 02:47:31;;;;;;;;;;;;;;;7.76;62.03;101444.16;5020773;28;8172;-69
2022/01/20 02:49:57;;;;;;;;;;;;;;;7.73;61.29;101436.28;5036406;28;7240;-70
2022/01/20 02:52:27;;;;;;;;;;;;;;;7.68;61.36;101441.81;5018830;28;6812;-70
2022/01/20 02:54:57;;;;;;;;;;;;;;;7.61;61.80;101440.44;5031788;28;6839;-70
2022/01/20 02:57:24;;;;;;;;;;;;;;;7.55;61.79;101434.88;5008523;28;6819;-70
2022/01/20 02:59:51;;;;;;;;;;;;;;;7.49;61.65;101437.84;5029829;28;6965;-70
2022/01/20 03:02:17;;;;;;;;;;;;;;;7.44;61.22;101436.59;5022168;28;6811;-70
2022/01/20 03:04:43;;;;;;;;;;;;;;;7.40;61.30;101432.03;5025371;28;6867;-70
2022/01/20 03:07:09;;;;;;;;;;;;;;;7.35;61.29;101429.13;5019754;28;6896;-70
2022/01/20 03:09:35;;;;;;;;;;;;;;;7.31;61.50;101415.22;5039484;28;6863;-70
2022/01/20 03:12:01;;;;;;;;;;;;;;;7.28;61.77;101414.09;5055572;28;7110;-70
2022/01/20 03:14:27;;;;;;;;;;;;;;;7.25;61.70;101419.88;5042302;28;7238;-70
2022/01/20 03:16:52;;;;;;;;;;;;;;;7.23;62.26;101416.28;5056260;28;7094;-69
2022/01/20 03:19:18;;;;;;;;;;;;;;;7.22;62.16;101424.72;5017399;28;7016;-69
2022/01/20 03:21:45;;;;;;;;;;;;;;;7.22;62.61;101427.25;5023297;28;6792;-69
2022/01/20 03:24:11;;;;;;;;;;;;;;;7.24;62.37;101423.16;5023115;28;7042;-69
2022/01/20 03:26:38;;;;;;;;;;;;;;;7.29;62.02;101420.97;5019602;28;7374;-69
2022/01/20 03:29:05;;;;;;;;;;;;;;;7.33;62.55;101420.47;5024297;28;6811;-70
2022/01/20 03:31:32;;;;;;;;;;;;;;;7.38;63.35;101431.03;5040973;28;6976;-70
2022/01/20 03:33:59;;;;;;;;;;;;;;;7.43;63.25;101419.50;5022834;28;6948;-70
2022/01/20 03:36:25;;;;;;;;;;;;;;;7.48;62.67;101418.19;5013160;28;7011;-70
2022/01/20 03:38:51;;;;;;;;;;;;;;;7.51;63.16;101428.63;5024189;28;7010;-70
2022/01/20 03:41:18;;;;;;;;;;;;;;;7.55;63.29;101427.22;5024280;28;7274;-70
2022/01/20 03:43:45;;;;;;;;;;;;;;;7.58;62.70;101422.34;5015115;28;7030;-70
2022/01/20 03:46:15;;;;;;;;;;;;;;;7.62;62.56;101412.47;5041618;28;6804;-70
2022/01/20 03:48:56;;;;;;;;;;;;;;;7.66;62.24;101413.59;5042207;28;8045;-70
2022/01/20 03:51:26;;;;;;;;;;;;;;;7.70;62.67;101418.19;5036319;28;7047;-70
2022/01/20 03:53:54;;;;;;;;;;;;;;;7.73;62.99;101407.34;5039061;28;7200;-70
2022/01/20 03:56:22;;;;;;;;;;;;;;;7.75;62.99;101404.09;5043527;28;6970;-70
2022/01/20 03:58:50;;;;;;;;;;;;;;;7.77;61.97;101406.78;5022189;28;8816;-70
2022/01/20 04:01:17;;;;;;;;;;;;;;;7.78;63.08;101404.34;5010836;28;6813;-70
2022/01/20 04:03:44;;;;;;;;;;;;;;;7.81;62.14;101403.66;5016085;28;7399;-70
2022/01/20 04:06:11;;;;;;;;;;;;;;;7.81;62.23;101402.78;5031900;28;7971;-71
2022/01/20 04:08:41;;;;;;;;;;;;;;;7.81;61.86;101403.66;5013781;28;7159;-71
2022/01/20 04:11:21;;;;;;;;;;;;;;;7.80;61.69;101396.78;5006276;28;6867;-70
2022/01/20 04:13:47;;;;;;;;;;;;;;;7.78;61.69;101388.13;5046121;28;6807;-70
2022/01/20 04:19:26;;;;;;;;;;;;;;;7.68;61.44;101406.97;5029147;28;9017;-70
2022/01/20 04:21:52;;;;;;;;;;;;;;;7.64;61.79;101405.84;4996836;28;7232;-70
2022/01/20 04:24:18;;;;;;;;;;;;;;;7.64;61.52;101410.06;5039962;28;6833;-70
2022/01/20 04:26:46;;;;;;;;;;;;;;;7.63;62.44;101411.75;5013855;28;9916;-70
2022/01/20 04:29:16;;;;;;;;;;;;;;;7.65;62.01;101414.38;5033497;28;7034;-70
2022/01/20 04:31:43;;;;;;;;;;;;;;;7.66;62.56;101420.38;5050226;28;6971;-71
2022/01/20 04:34:10;;;;;;;;;;;;;;;7.65;61.30;101414.38;5019816;28;6950;-71
2022/01/20 04:36:40;;;;;;;;;;;;;;;7.60;62.14;101408.94;5021687;28;6876;-71
2022/01/20 04:39:19;;;;;;;;;;;;;;;7.55;62.13;101412.81;5013277;28;6807;-71
2022/01/20 04:41:46;;;;;;;;;;;;;;;7.50;61.13;101416.66;5018770;28;6811;-71
2022/01/20 04:44:18;;;;;;;;;;;;;;;7.45;61.74;101417.97;5016884;28;6807;-71
2022/01/20 04:46:53;;;;;;;;;;;;;;;7.43;61.57;101416.94;5050500;28;7161;-71
2022/01/20 04:57:33;;;;;;;;;;;;;;;7.46;62.00;101415.53;4994075;28;6892;-71
2022/01/20 04:59:59;;;;;;;;;;;;;;;7.51;62.82;101418.44;5017405;28;6784;-71
2022/01/20 05:02:27;;;;;;;;;;;;;;;7.55;62.15;101417.00;5019370;28;6784;-71
2022/01/20 05:04:53;;;;;;;;;;;;;;;7.57;62.78;101420.56;5038885;28;7141;-71
2022/01/20 05:07:23;;;;;;;;;;;;;;;7.60;62.12;101408.06;5029935;28;7277;-71
2022/01/20 05:09:51;;;;;;;;;;;;;;;7.59;61.85;101412.25;5017791;28;7312;-71
2022/01/20 05:12:22;;;;;;;;;;;;;;;7.58;62.20;101425.78;5044386;28;7074;-71
2022/01/20 05:14:48;;;;;;;;;;;;;;;7.56;62.41;101427.34;5015465;28;7030;-71
2022/01/20 05:17:13;;;;;;;;;;;;;;;7.54;62.25;101428.88;5030429;28;6819;-71
2022/01/20 05:19:39;;;;;;;;;;;;;;;7.56;62.32;101421.34;5012501;28;7308;-70
2022/01/20 05:22:05;;;;;;;;;;;;;;;7.58;61.71;101418.13;5049403;28;7107;-70
2022/01/20 05:24:30;;;;;;;;;;;;;;;7.59;62.78;101432.66;5015897;28;6879;-70
2022/01/20 05:26:57;;;;;;;;;;;;;;;7.60;62.38;101436.13;5051177;28;7240;-70
2022/01/20 05:29:24;;;;;;;;;;;;;;;7.61;62.00;101426.00;5016428;28;8192;-71
2022/01/20 05:31:51;;;;;;;;;;;;;;;7.63;62.62;101439.81;4982331;28;7392;-71
2022/01/20 05:34:18;;;;;;;;;;;;;;;7.68;62.93;101424.84;5017930;28;7428;-71
2022/01/20 05:36:47;;;;;;;;;;;;;;;7.73;62.42;101425.19;5015814;28;7892;-71
2022/01/20 05:39:13;;;;;;;;;;;;;;;7.76;62.52;101433.94;5022620;28;6827;-71
2022/01/20 05:41:38;;;;;;;;;;;;;;;7.81;62.15;101438.53;5018748;28;6801;-71
2022/01/20 05:44:05;;;;;;;;;;;;;;;7.85;61.92;101443.06;5006921;28;6792;-71
2022/01/20 05:46:43;;;;;;;;;;;;;;;7.89;62.59;101450.22;5006352;28;7182;-70
2022/01/20 05:49:09;;;;;;;;;;;;;;;7.92;62.53;101453.88;5006006;28;7290;-70
2022/01/20 05:51:37;;;;;;;;;;;;;;;7.95;62.65;101455.75;5038231;28;7211;-70
2022/01/20 05:54:03;;;;;;;;;;;;;;;7.98;62.03;101462.78;5021886;28;6824;-70
2022/01/20 05:56:29;;;;;;;;;;;;;;;8.00;62.55;101468.88;5021780;28;7045;-70
2022/01/20 05:58:55;;;;;;;;;;;;;;;8.00;62.02;101461.22;5017325;28;6807;-70
2022/01/20 06:01:21;;;;;;;;;;;;;;;8.00;61.90;101461.22;5020856;28;6902;-70
2022/01/20 06:03:46;;;;;;;;;;;;;;;7.99;61.33;101468.00;5036077;28;6791;-70
2022/01/20 06:06:13;;;;;;;;;;;;;;;7.99;61.99;101472.22;5019937;28;7817;-70
2022/01/20 06:08:41;;;;;;;;;;;;;;;7.98;61.82;101470.44;5037690;28;6967;-70
2022/01/20 06:11:08;;;;;;;;;;;;;;;7.96;61.90;101475.41;5020101;28;6804;-70
2022/01/20 06:13:33;;;;;;;;;;;;;;;7.94;62.53;101474.41;5019921;28;6976;-70
2022/01/20 06:16:00;;;;;;;;;;;;;;;7.92;61.38;101478.50;5038554;28;6799;-70
2022/01/20 06:18:26;;;;;;;;;;;;;;;7.90;61.27;101482.63;5020288;28;6997;-70
2022/01/20 06:20:53;;;;;;;;;;;;;;;7.89;61.96;101488.50;5019342;28;6957;-71
2022/01/20 06:23:20;;;;;;;;;;;;;;;7.87;61.30;101487.47;5001718;28;7249;-71
2022/01/20 06:25:46;;;;;;;;;;;;;;;7.86;62.12;101490.78;5021538;28;7976;-70
2022/01/20 06:28:13;;;;;;;;;;;;;;;7.85;61.93;101486.47;5021040;28;6943;-70
2022/01/20 06:30:40;;;;;;;;;;;;;;;7.86;61.87;101494.25;5035696;28;6843;-71
2022/01/20 06:33:07;;;;;;;;;;;;;;;7.88;62.42;101507.16;5002674;28;6808;-71
2022/01/20 06:35:33;;;;;;;;;;;;;;;7.89;62.35;101503.81;5013423;28;7148;-71
2022/01/20 06:37:59;;;;;;;;;;;;;;;7.90;61.84;101505.59;5000250;28;7021;-71
2022/01/20 06:40:25;;;;;;;;;;;;;;;7.93;61.97;101521.13;5001965;28;6803;-71
2022/01/20 06:42:51;;;;;;;;;;;;;;;7.95;61.40;101529.78;5018655;28;6867;-71
2022/01/20 06:45:19;;;;;;;;;;;;;;;7.96;62.02;101549.44;5023196;28;7088;-71
2022/01/20 06:47:45;;;;;;;;;;;;;;;7.99;62.08;101541.13;4999133;28;7022;-71
2022/01/20 06:50:12;;;;;;;;;;;;;;;7.99;61.10;101561.56;5015960;28;6783;-71
2022/01/20 06:52:40;;;;;;;;;;;;;;;7.98;61.24;101564.91;5012958;28;7426;-70
2022/01/20 06:55:10;;;;;;;;;;;;;;;7.97;61.06;101563.13;5013802;28;6896;-70
2022/01/20 06:57:38;;;;;;;;;;;;;;;7.95;61.48;101564.66;5042885;28;6879;-70
2022/01/20 07:00:05;;;;;;;;;;;;;;;7.96;61.10;101574.09;5004659;28;7210;-71
2022/01/20 07:02:31;;;;;;;;;;;;;;;7.96;61.13;101571.56;5039729;28;6808;-71
2022/01/20 07:04:56;;;;;;;;;;;;;;;7.95;61.47;101585.09;5040613;28;6965;-71
2022/01/20 07:07:22;;;;;;;;;;;;;;;7.92;61.73;101599.41;5042542;28;6917;-71
2022/01/20 07:09:48;;;;;;;;;;;;;;;7.88;61.86;101609.25;5038974;28;6807;-71
2022/01/20 07:12:13;;;;;;;;;;;;;;;7.80;61.15;101603.53;5023066;28;6889;-71
2022/01/20 07:14:39;;;;;;;;;;;;;;;7.74;61.42;101614.16;5025438;28;6885;-71
2022/01/20 07:17:06;;;;;;;;;;;;;;;7.69;60.87;101612.00;5022645;28;7237;-71
2022/01/20 07:19:33;;;;;;;;;;;;;;;7.64;61.31;101612.53;5025256;28;6975;-70
2022/01/20 07:22:00;;;;;;;;;;;;;;;7.62;61.13;101631.91;5020773;28;7637;-70
2022/01/20 07:24:27;;;;;;;;;;;;;;;7.60;61.66;101637.69;5023071;28;6879;-70
2022/01/20 07:26:54;;;;;;;;;;;;;;;7.58;61.58;101627.34;5021900;28;6807;-70
2022/01/20 07:29:20;;;;;;;;;;;;;;;7.58;61.68;101624.81;5022613;28;6872;-70
2022/01/20 07:31:46;;;;;;;;;;;;;;;7.55;61.53;101616.91;5024737;28;7075;-70
2022/01/20 07:34:11;;;;;;;;;;;;;;;7.55;61.13;101616.91;5015014;28;7205;-70
2022/01/20 07:36:37;;;;;;;;;;;;;;;7.51;60.90;101617.44;5024394;28;8041;-70
2022/01/20 07:39:03;;;;;;;;;;;;;;;7.50;60.56;101628.41;5040271;28;6803;-70
2022/01/20 07:41:29;;;;;;;;;;;;;;;7.48;61.31;101628.31;5021572;28;6799;-70
2022/01/20 07:43:57;;;;;;;;;;;;;;;7.48;60.73;101633.41;5036597;28;6891;-71
2022/01/20 07:46:22;;;;;;;;;;;;;;;7.47;60.77;101640.91;5034061;28;6978;-71
2022/01/20 07:48:48;;;;;;;;;;;;;;;7.46;60.75;101644.25;5039707;28;6788;-71
2022/01/20 07:51:15;;;;;;;;;;;;;;;7.45;60.91;101652.66;5039718;28;6833;-71
2022/01/20 07:53:41;;;;;;;;;;;;;;;7.45;60.70;101655.22;5012495;28;7236;-71
2022/01/20 07:56:07;;;;;;;;;;;;;;;7.44;61.21;101668.75;5021808;28;7209;-71
2022/01/20 07:58:35;;;;;;;;;;;;;;;7.43;61.04;101667.84;5053574;28;6990;-71
2022/01/20 08:01:02;;;;;;;;;;;;;;;7.44;61.06;101666.19;5021377;28;6815;-71
2022/01/20 08:03:27;;;;;;;;;;;;;;;7.46;60.84;101662.09;5034719;28;7296;-71
2022/01/20 08:05:53;;;;;;;;;;;;;;;7.48;60.69;101668.22;5040791;28;7152;-71
2022/01/20 08:08:19;;;;;;;;;;;;;;;7.50;61.03;101664.13;5039245;28;7484;-71
2022/01/20 08:10:45;;;;;;;;;;;;;;;7.50;60.70;101664.13;5041559;28;7281;-71
2022/01/20 08:13:10;;;;;;;;;;;;;;;7.51;61.15;101671.00;5016595;28;7214;-71
2022/01/20 08:15:36;;;;;;;;;;;;;;;7.50;60.92;101677.78;5021006;28;6906;-71
2022/01/20 08:18:02;;;;;;;;;;;;;;;7.49;60.16;101675.09;5041234;28;6823;-71
2022/01/20 08:20:28;;;;;;;;;;;;;;;7.49;60.19;101685.28;5015618;28;7261;-70
2022/01/20 08:22:54;;;;;;;;;;;;;;;7.49;60.86;101680.19;5035700;28;6999;-70
2022/01/20 08:25:20;;;;;;;;;;;;;;;7.48;60.64;101674.22;5052853;28;8273;-70
2022/01/20 08:27:48;;;;;;;;;;;;;;;7.46;60.27;101679.97;5020050;28;6861;-70
2022/01/20 08:30:18;;;;;;;;;;;;;;;7.44;60.61;101681.50;5021384;28;6831;-70
2022/01/20 08:32:47;;;;;;;;;;;;;;;7.41;60.69;101679.59;5003179;28;7336;-70
2022/01/20 08:35:13;;;;;;;;;;;;;;;7.40;60.30;101685.47;5038136;28;7156;-70
2022/01/20 08:37:44;;;;;;;;;;;;;;;7.41;60.95;101686.34;5035304;28;8016;-70
2022/01/20 08:40:18;;;;;;;;;;;;;;;7.44;60.55;101687.47;5019464;28;7047;-70
2022/01/20 08:42:46;;;;;;;;;;;;;;;7.53;60.08;101691.53;5029021;28;6823;-70
2022/01/20 08:45:15;;;;;;;;;;;;;;;7.59;60.74;101692.94;5010801;28;7956;-70
2022/01/20 08:47:42;;;;;;;;;;;;;;;7.66;60.38;101694.31;5037752;28;7020;-70
2022/01/20 08:50:11;;;;;;;;;;;;;;;7.73;60.55;101698.28;5020166;28;7096;-71
2022/01/20 08:52:37;;;;;;;;;;;;;;;7.80;60.16;101705.63;5022321;28;6953;-71
2022/01/20 08:55:04;;;;;;;;;;;;;;;7.86;59.72;101702.66;5021784;28;8077;-71
2022/01/20 08:57:30;;;;;;;;;;;;;;;7.89;60.32;101710.59;5017982;28;6803;-71
2022/01/20 08:59:56;;;;;;;;;;;;;;;7.92;60.51;101708.28;5038891;28;6889;-71
2022/01/20 09:02:23;;;;;;;;;;;;;;;7.95;59.93;101707.63;5021391;28;6795;-71
2022/01/20 09:04:50;;;;;;;;;;;;;;;7.98;60.29;101715.53;5023600;28;7660;-71
2022/01/20 09:07:16;;;;;;;;;;;;;;;8.01;60.25;101720.88;5022544;28;6895;-71
2022/01/20 09:09:45;;;;;;;;;;;;;;;8.03;59.58;101725.34;5020959;28;7014;-70
2022/01/20 09:17:29;;;;;;;;;;;;;;;8.14;60.15;101738.97;5038125;28;6891;-71
2022/01/20 09:19:56;;;;;;;;;;;;;;;8.18;58.80;101743.53;5021369;28;6958;-71
2022/01/20 09:22:22;;;;;;;;;;;;;;;8.23;58.57;101755.78;5020951;28;7597;-71
2022/01/20 09:24:48;;;;;;;;;;;;;;;8.25;58.90;101747.47;5005743;28;8349;-71
2022/01/20 09:27:15;;;;;;;;;;;;;;;8.27;59.06;101753.59;5019638;28;6784;-71
2022/01/20 09:29:41;;;;;;;;;;;;;;;8.30;58.93;101756.41;5014423;28;6812;-71
2022/01/20 09:32:10;;;;;;;;;;;;;;;8.36;59.87;101753.44;5021855;28;6811;-71
2022/01/20 09:34:36;;;;;;;;;;;;;;;8.39;59.13;101747.66;5018974;28;6903;-71
2022/01/20 09:37:03;;;;;;;;;;;;;;;8.41;58.76;101752.13;5022030;28;6955;-71
2022/01/20 09:39:28;;;;;;;;;;;;;;;8.45;58.15;101745.56;5018997;28;6966;-71
2022/01/20 09:41:54;;;;;;;;;;;;;;;8.45;59.34;101741.38;5037797;28;7482;-71
2022/01/20 09:44:20;;;;;;;;;;;;;;;8.45;58.29;101738.81;5019145;28;7147;-71
2022/01/20 09:46:46;;;;;;;;;;;;;;;8.46;59.26;101740.59;5021068;28;6947;-71
2022/01/20 09:49:13;;;;;;;;;;;;;;;8.50;58.51;101746.84;5022082;28;6804;-71
2022/01/20 09:51:41;;;;;;;;;;;;;;;8.53;58.55;101751.34;5036495;28;7263;-71
2022/01/20 09:54:08;;;;;;;;;;;;;;;8.56;58.45;101754.13;5007679;28;6986;-71
2022/01/20 09:56:35;;;;;;;;;;;;;;;8.63;57.95;101758.94;5017626;28;10431;-71
2022/01/20 09:59:00;;;;;;;;;;;;;;;8.69;57.76;101772.22;5007908;28;6799;-71
2022/01/20 10:01:39;;;;;;;;;;;;;;;8.73;58.54;101776.78;5035324;28;6891;-71
2022/01/20 10:04:05;;;;;;;;;;;;;;;8.79;57.97;101778.00;5013884;28;7079;-71
2022/01/20 10:06:31;;;;;;;;;;;;;;;8.83;57.19;101783.47;5001640;28;7122;-71
2022/01/20 10:09:02;;;;;;;;;;;;;;;8.89;57.88;101785.66;5018268;28;6867;-70
2022/01/20 10:11:29;;;;;;;;;;;;;;;8.94;57.72;101792.00;5039696;28;7022;-71
2022/01/20 10:13:59;;;;;;;;;;;;;;;8.97;56.29;101787.09;5024134;28;6808;-71
2022/01/20 10:16:25;;;;;;;;;;;;;;;8.96;56.24;101790.44;5023403;28;6883;-71
2022/01/20 10:18:55;;;;;;;;;;;;;;;8.96;56.58;101787.88;5021730;28;6807;-71
2022/01/20 10:21:31;;;;;;;;;;;;;;;8.96;55.90;101792.13;5003353;28;6804;-71
2022/01/20 10:24:09;;;;;;;;;;;;;;;8.97;57.08;101789.66;5022259;28;6816;-71
2022/01/20 10:26:36;;;;;;;;;;;;;;;8.99;56.55;101795.81;5013961;28;7169;-71
2022/01/20 10:29:07;;;;;;;;;;;;;;;9.02;56.52;101797.69;5022607;28;6808;-71
2022/01/20 10:31:41;;;;;;;;;;;;;;;9.06;56.75;101807.41;5013394;28;7320;-71
2022/01/20 10:34:37;;;;;;;;;;;;;;;9.07;55.73;101798.03;5006730;28;7058;-71
2022/01/20 10:37:15;;;;;;;;;;;;;;;9.03;55.04;101796.94;5023476;28;9405;-71
2022/01/20 10:39:45;;;;;;;;;;;;;;;9.02;56.00;101800.25;5022421;28;7250;-71
2022/01/20 10:42:21;;;;;;;;;;;;;;;9.00;55.82;101792.47;4996358;28;6796;-71
2022/01/20 10:44:54;;;;;;;;;;;;;;;9.03;56.50;101797.81;5022808;28;6819;-71
2022/01/20 10:47:40;;;;;;;;;;;;;;;9.09;56.17;101799.94;5020094;28;6887;-71
2022/01/20 10:50:17;;;;;;;;;;;;;;;9.15;55.37;101808.09;5039315;28;7008;-71
2022/01/20 10:52:44;;;;;;;;;;;;;;;9.24;55.25;101814.69;5020972;28;7250;-71
2022/01/20 10:55:24;;;;;;;;;;;;;;;9.27;55.44;101808.16;5054830;28;7038;-71
2022/01/20 10:57:53;;;;;;;;;;;;;;;9.32;55.12;101811.06;5020961;28;6799;-71
2022/01/20 11:00:21;;;;;;;;;;;;;;;9.38;55.09;101810.63;5024488;28;6812;-71
2022/01/20 11:02:54;;;;;;;;;;;;;;;9.48;54.78;101809.63;5007572;28;7094;-71
2022/01/20 11:05:21;;;;;;;;;;;;;;;9.59;54.61;101804.56;5018206;28;7952;-71
2022/01/20 11:07:48;;;;;;;;;;;;;;;9.68;54.08;101811.13;5017025;28;7041;-70
2022/01/20 11:10:16;;;;;;;;;;;;;;;9.75;54.28;101808.22;5017329;28;6812;-71
2022/01/20 11:12:43;;;;;;;;;;;;;;;9.84;53.29;101803.78;5034525;28;7221;-70
2022/01/20 11:15:20;;;;;;;;;;;;;;;9.88;53.14;101797.22;5019550;28;6891;-71
2022/01/20 11:17:53;;;;;;;;;;;;;;;9.87;53.26;101813.38;5036588;28;6827;-71
2022/01/20 11:20:23;;;;;;;;;;;;;;;9.82;53.12;101802.78;5005655;28;9571;-71
2022/01/20 11:22:57;;;;;;;;;;;;;;;9.81;52.50;101800.13;5040571;28;6887;-71
2022/01/20 11:25:29;;;;;;;;;;;;;;;9.79;52.25;101800.00;5042075;28;7299;-71
2022/01/20 11:28:17;;;;;;;;;;;;;;;9.80;52.31;101811.13;5000627;28;6888;-71
2022/01/20 11:31:08;;;;;;;;;;;;;;;9.78;52.06;101811.03;5023261;28;6888;-70
2022/01/20 11:33:38;;;;;;;;;;;;;;;9.81;52.09;101812.94;5023823;28;6891;-70
2022/01/20 11:36:08;;;;;;;;;;;;;;;9.85;51.46;101812.38;5040379;28;10453;-70
2022/01/20 11:38:46;;;;;;;;;;;;;;;9.87;50.98;101823.63;5035515;28;7008;-71
2022/01/20 11:41:14;;;;;;;;;;;;;;;9.89;50.92;101821.19;5039863;28;6895;-70
2022/01/20 11:43:48;;;;;;;;;;;;;;;9.91;50.37;101824.72;5041898;28;8684;-70
2022/01/20 11:46:15;;;;;;;;;;;;;;;9.87;51.32;101823.63;5032418;28;7019;-70
2022/01/20 11:49:05;;;;;;;;;;;;;;;9.85;51.02;101814.94;4979857;28;8078;-70
2022/01/20 11:51:58;;;;;;;;;;;;;;;9.83;51.14;101827.63;5017086;28;7047;-70
2022/01/20 11:54:38;;;;;;;;;;;;;;;9.81;50.63;101834.28;5024267;28;7276;-70
2022/01/20 11:57:20;;;;;;;;;;;;;;;9.79;50.46;101819.59;5018486;28;6831;-70
2022/01/20 11:59:55;;;;;;;;;;;;;;;9.80;50.34;101821.38;5020492;28;6922;-71
2022/01/20 12:02:39;;;;;;;;;;;;;;;9.95;50.76;101812.25;5053978;28;6827;-70
2022/01/20 12:05:30;;;;;;;;;;;;;;;10.17;49.89;101815.50;5001184;28;7072;-70
2022/01/20 12:08:10;;;;;;;;;;;;;;;10.24;49.43;101799.81;5022878;28;7572;-70
2022/01/20 12:10:37;;;;;;;;;;;;;;;10.28;49.41;101799.22;5020815;28;7079;-70
2022/01/20 12:13:16;;;;;;;;;;;;;;;10.31;49.29;101807.13;5018432;28;6823;-70
2022/01/20 12:15:58;;;;;;;;;;;;;;;10.24;49.48;101789.56;5035495;28;7071;-70
2022/01/20 12:18:25;;;;;;;;;;;;;;;10.08;49.28;101788.44;5001660;28;7330;-70
2022/01/20 12:20:51;;;;;;;;;;;;;;;9.98;48.48;101794.56;5022460;28;6974;-70
2022/01/20 12:23:20;;;;;;;;;;;;;;;9.92;48.90;101783.88;5016098;28;6913;-70
2022/01/20 12:25:47;;;;;;;;;;;;;;;9.88;48.61;101792.09;5041502;28;6820;-70
2022/01/20 12:28:16;;;;;;;;;;;;;;;9.81;48.66;101788.22;5037760;28;6898;-70
2022/01/20 12:30:50;;;;;;;;;;;;;;;9.73;48.95;101792.78;5023608;28;6887;-70
2022/01/20 12:33:22;;;;;;;;;;;;;;;9.66;48.70;101789.66;5021109;28;6902;-70
2022/01/20 12:35:52;;;;;;;;;;;;;;;9.59;48.43;101806.19;5039725;28;7240;-70
2022/01/20 12:38:28;;;;;;;;;;;;;;;9.54;48.51;101789.63;5036678;28;7176;-70
2022/01/20 12:41:10;;;;;;;;;;;;;;;9.50;48.31;101787.59;5038699;28;7868;-70
2022/01/20 12:44:07;;;;;;;;;;;;;;;9.49;49.27;101785.81;5021078;28;7947;-70
2022/01/20 12:46:39;;;;;;;;;;;;;;;9.50;49.04;101780.81;5031517;28;6823;-70
2022/01/20 12:49:18;;;;;;;;;;;;;;;9.55;49.33;101787.16;5023437;28;6823;-70
2022/01/20 12:51:53;;;;;;;;;;;;;;;9.62;48.36;101780.84;5022570;28;7492;-70
2022/01/20 12:54:26;;;;;;;;;;;;;;;9.65;48.86;101775.03;5011333;28;7002;-70
2022/01/20 12:56:58;;;;;;;;;;;;;;;9.67;47.77;101766.72;5019106;28;6818;-70
2022/01/20 12:59:37;;;;;;;;;;;;;;;9.74;47.78;101778.28;5013012;28;6887;-70
2022/01/20 13:02:15;;;;;;;;;;;;;;;9.75;47.28;101769.81;5013982;28;6827;-70
2022/01/20 13:04:41;;;;;;;;;;;;;;;9.71;47.49;101753.38;5040919;28;6836;-70
2022/01/20 13:07:11;;;;;;;;;;;;;;;9.65;47.84;101762.25;5008310;28;7186;-70
2022/01/20 13:10:03;;;;;;;;;;;;;;;9.56;48.44;101760.81;5018835;28;7902;-70
2022/01/20 13:12:41;;;;;;;;;;;;;;;9.49;47.82;101756.00;5021163;28;7353;-70
2022/01/20 13:15:16;;;;;;;;;;;;;;;9.43;47.15;101764.13;5012152;28;7227;-70
2022/01/20 13:17:42;;;;;;;;;;;;;;;9.40;47.93;101753.66;5019121;28;6882;-70
2022/01/20 13:20:22;;;;;;;;;;;;;;;9.38;46.81;101757.75;5017990;28;6930;-70
2022/01/20 13:23:09;;;;;;;;;;;;;;;9.37;47.52;101755.13;5019861;28;7238;-70
2022/01/20 13:25:39;;;;;;;;;;;;;;;9.40;47.38;101753.66;5023297;28;6883;-70
2022/01/20 13:28:11;;;;;;;;;;;;;;;9.45;47.04;101761.66;5018004;28;7939;-70
2022/01/20 13:30:41;;;;;;;;;;;;;;;9.48;47.25;101768.69;5017662;28;6804;-70
2022/01/20 13:33:15;;;;;;;;;;;;;;;9.50;46.53;101755.22;5035711;28;8092;-70
2022/01/20 13:35:47;;;;;;;;;;;;;;;9.56;46.43;101762.47;5039107;28;9080;-70
2022/01/20 13:38:14;;;;;;;;;;;;;;;9.61;46.26;101763.72;5019261;28;6895;-70
2022/01/20 13:40:45;;;;;;;;;;;;;;;9.68;46.71;101765.06;5020960;28;6795;-70
2022/01/20 13:46:06;;;;;;;;;;;;;;;9.71;47.13;101757.59;5018589;28;6895;-70
2022/01/20 13:48:34;;;;;;;;;;;;;;;9.70;46.54;101753.25;5020004;28;7082;-70
2022/01/20 13:51:03;;;;;;;;;;;;;;;9.69;47.06;101754.91;5037278;28;6815;-70
2022/01/20 13:53:34;;;;;;;;;;;;;;;9.67;46.79;101751.34;5021854;28;6827;-70
2022/01/20 13:56:09;;;;;;;;;;;;;;;9.66;46.99;101764.06;5018276;28;6820;-70
2022/01/20 13:58:39;;;;;;;;;;;;;;;9.68;46.34;101759.94;5019683;28;6820;-70
2022/01/20 14:01:09;;;;;;;;;;;;;;;9.68;47.05;101767.63;5005164;28;6819;-70
2022/01/20 14:03:36;;;;;;;;;;;;;;;9.65;45.67;101767.38;5021355;28;6823;-70
2022/01/20 14:06:02;;;;;;;;;;;;;;;9.62;46.22;101762.94;5015197;28;6902;-70
2022/01/20 14:08:28;;;;;;;;;;;;;;;9.61;46.73;101773.06;5011695;28;7211;-70
2022/01/20 14:10:55;;;;;;;;;;;;;;;9.59;47.48;101771.28;5021324;28;7223;-70
2022/01/20 14:13:21;;;;;;;;;;;;;;;9.56;46.69;101773.63;5039262;28;6981;-70
2022/01/20 14:15:49;;;;;;;;;;;;;;;9.53;47.44;101786.16;5021986;28;7161;-70
2022/01/20 14:18:20;;;;;;;;;;;;;;;9.48;46.65;101777.28;5019474;28;6973;-70
2022/01/20 14:20:48;;;;;;;;;;;;;;;9.49;47.97;101783.25;5020140;28;7715;-70
2022/01/20 14:23:14;;;;;;;;;;;;;;;9.51;46.65;101777.50;5014487;28;7030;-70
2022/01/20 14:25:42;;;;;;;;;;;;;;;9.56;46.76;101790.63;5012303;28;6922;-70